createdAt,value
2023-03-26T00:04:39.329Z,1001.7
2023-03-26T00:09:45.816Z,1001.9
2023-03-26T00:15:17.432Z,1001.9
2023-03-26T00:20:00.886Z,1001.9
2023-03-26T00:25:07.294Z,1002.0
2023-03-26T00:30:37.752Z,1001.9
2023-03-26T00:35:20.149Z,1001.9
2023-03-26T00:40:26.542Z,1002.0
2023-03-26T00:45:32.904Z,1001.9
2023-03-26T00:51:17.494Z,1001.9
2023-03-26T00:55:45.806Z,1001.9
2023-03-26T01:01:12.225Z,1001.8
2023-03-26T01:05:58.546Z,1001.8
2023-03-26T01:11:05.089Z,1001.7
2023-03-26T01:16:35.482Z,1001.7
2023-03-26T01:21:18.019Z,1001.7
2023-03-26T01:26:48.689Z,1001.7
2023-03-26T01:31:31.005Z,1001.5
2023-03-26T01:36:37.386Z,1001.5
2023-03-26T01:42:07.836Z,1001.5
2023-03-26T01:47:10.315Z,1001.4
2023-03-26T01:51:56.634Z,1001.4
2023-03-26T01:57:03.074Z,1001.3
2023-03-26T02:02:09.595Z,1001.3
2023-03-26T02:07:39.945Z,1001.2
2023-03-26T02:12:46.328Z,1001.2
2023-03-26T02:17:48.762Z,1001.2
2023-03-26T02:22:35.059Z,1001.1
2023-03-26T02:27:41.458Z,1001.0
2023-03-26T02:33:11.945Z,1000.9
2023-03-26T02:39:14.512Z,1000.9
2023-03-26T02:43:20.722Z,1000.8
2023-03-26T02:49:11.202Z,1000.7
2023-03-26T02:53:13.442Z,1000.7
2023-03-26T02:58:19.828Z,1000.6
2023-03-26T03:03:26.387Z,1000.8
2023-03-26T03:08:32.635Z,1000.7
2023-03-26T03:13:39.103Z,1000.6
2023-03-26T03:18:45.597Z,1000.5
2023-03-26T03:23:51.999Z,1000.5
2023-03-26T03:28:58.354Z,1000.5
2023-03-26T03:34:04.765Z,1000.4
2023-03-26T03:39:11.198Z,1000.5
2023-03-26T03:44:53.650Z,1000.5
2023-03-26T03:50:01.052Z,1000.4
2023-03-26T03:55:07.565Z,1000.3
2023-03-26T04:00:13.924Z,1000.3
2023-03-26T04:05:20.322Z,1000.2
2023-03-26T04:10:26.739Z,1000.3
2023-03-26T04:15:53.379Z,1000.2
2023-03-26T04:20:29.569Z,1000.2
2023-03-26T04:25:45.999Z,1000.2
2023-03-26T04:30:52.444Z,1000.1
2023-03-26T04:35:58.972Z,1000.1
2023-03-26T04:41:25.373Z,1000.0
2023-03-26T04:46:11.756Z,1000.0
2023-03-26T04:51:18.073Z,1000.0
2023-03-26T04:56:28.524Z,999.9
2023-03-26T05:02:26.974Z,999.8
2023-03-26T05:06:37.350Z,999.7
2023-03-26T05:11:43.863Z,999.7
2023-03-26T05:17:10.242Z,999.6
2023-03-26T05:21:46.664Z,999.7
2023-03-26T05:27:03.086Z,999.6
2023-03-26T05:32:09.433Z,999.5
2023-03-26T05:37:15.814Z,999.5
2023-03-26T05:43:03.326Z,999.5
2023-03-26T05:48:10.696Z,999.4
2023-03-26T05:53:17.208Z,999.3
2023-03-26T05:58:23.713Z,999.3
2023-03-26T06:03:30.197Z,999.3
2023-03-26T06:08:36.449Z,999.3
2023-03-26T06:13:42.958Z,999.3
2023-03-26T06:18:49.341Z,999.3
2023-03-26T06:23:55.675Z,999.2
2023-03-26T06:29:02.138Z,999.1
2023-03-26T06:34:08.466Z,999.1
2023-03-26T06:39:14.958Z,999.0
2023-03-26T06:44:22.511Z,998.9
2023-03-26T06:49:28.877Z,998.9
2023-03-26T06:54:35.243Z,998.8
2023-03-26T06:59:41.657Z,998.8
2023-03-26T07:04:47.998Z,998.8
2023-03-26T07:09:54.407Z,998.8
2023-03-26T07:15:00.925Z,998.8
2023-03-26T07:20:07.329Z,998.8
2023-03-26T07:25:57.839Z,998.7
2023-03-26T07:30:10.133Z,998.7
2023-03-26T07:35:26.533Z,998.6
2023-03-26T07:40:32.887Z,998.6
2023-03-26T07:45:39.309Z,998.6
2023-03-26T07:50:45.656Z,998.6
2023-03-26T07:55:52.027Z,998.6
2023-03-26T08:00:58.455Z,998.6
2023-03-26T08:06:04.963Z,998.6
2023-03-26T08:11:01.302Z,998.6
2023-03-26T08:16:17.800Z,998.5
2023-03-26T08:21:24.113Z,998.5
2023-03-26T08:26:30.488Z,998.5
2023-03-26T08:31:26.912Z,998.4
2023-03-26T08:36:43.331Z,998.4
2023-03-26T08:41:49.726Z,998.4
2023-03-26T08:47:16.293Z,998.4
2023-03-26T08:52:03.139Z,998.3
2023-03-26T08:57:09.566Z,998.3
2023-03-26T09:02:05.942Z,998.3
2023-03-26T09:07:22.318Z,998.3
2023-03-26T09:12:28.765Z,998.3
2023-03-26T09:17:35.326Z,998.3
2023-03-26T09:22:47.265Z,998.3
2023-03-26T09:27:38.609Z,998.3
2023-03-26T09:32:56.065Z,998.3
2023-03-26T09:38:02.425Z,998.3
2023-03-26T09:43:08.787Z,998.3
2023-03-26T09:48:35.194Z,998.2
2023-03-26T09:53:21.625Z,998.2
2023-03-26T09:58:27.968Z,998.3
2023-03-26T10:03:34.355Z,998.2
2023-03-26T10:09:04.809Z,998.2
2023-03-26T10:13:47.122Z,998.3
2023-03-26T10:18:53.501Z,998.2
2023-03-26T10:24:24.064Z,998.1
2023-03-26T10:28:56.469Z,998.2
2023-03-26T10:37:18.947Z,998.2
2023-03-26T10:45:48.363Z,998.1
2023-03-26T10:51:11.601Z,998.2
2023-03-26T10:56:18.977Z,998.2
2023-03-26T11:01:25.495Z,998.2
2023-03-26T11:06:31.760Z,998.1
2023-03-26T11:11:43.743Z,998.1
2023-03-26T11:16:46.141Z,998.2
2023-03-26T11:21:52.589Z,998.2
2023-03-26T11:27:15.924Z,998.2
2023-03-26T11:32:25.527Z,998.2
2023-03-26T11:37:11.831Z,998.2
2023-03-26T11:42:18.227Z,998.2
2023-03-26T11:47:24.657Z,998.2
2023-03-26T11:52:32.591Z,998.2
2023-03-26T11:57:38.964Z,998.1
2023-03-26T12:02:45.347Z,998.2
2023-03-26T12:07:41.689Z,998.1
2023-03-26T12:12:58.130Z,998.2
2023-03-26T12:18:04.671Z,998.2
2023-03-26T12:23:11.094Z,998.2
2023-03-26T12:28:37.467Z,998.2
2023-03-26T12:33:23.845Z,998.2
2023-03-26T12:38:30.222Z,998.3
2023-03-26T12:44:56.401Z,998.3
2023-03-26T12:48:43.206Z,998.3
2023-03-26T12:53:49.545Z,998.3
2023-03-26T12:58:56.037Z,998.4
2023-03-26T13:04:02.424Z,998.3
2023-03-26T13:09:08.852Z,998.4
2023-03-26T13:14:35.237Z,998.4
2023-03-26T13:19:21.568Z,998.4
2023-03-26T13:24:28.006Z,998.5
2023-03-26T13:35:17.450Z,998.4
2023-03-26T13:39:50.774Z,998.4
2023-03-26T13:45:04.759Z,998.5
2023-03-26T13:50:03.521Z,998.6
2023-03-26T13:55:29.986Z,998.5
2023-03-26T14:00:16.327Z,998.6
2023-03-26T14:06:32.886Z,998.5
2023-03-26T14:10:29.143Z,998.6
2023-03-26T14:15:35.564Z,998.7
2023-03-26T14:20:41.918Z,998.6
2023-03-26T14:25:48.274Z,998.7
2023-03-26T14:30:55.001Z,998.8
2023-03-26T14:35:51.020Z,998.8
2023-03-26T14:41:10.965Z,998.8
2023-03-26T14:46:17.436Z,998.9
2023-03-26T14:51:25.314Z,999.0
2023-03-26T14:56:31.694Z,999.0
2023-03-26T15:01:38.089Z,999.0
2023-03-26T15:06:44.420Z,999.1
2023-03-26T15:11:50.803Z,999.1
2023-03-26T15:16:57.247Z,999.1
2023-03-26T15:22:03.548Z,999.2
2023-03-26T15:27:09.929Z,999.2
2023-03-26T15:32:17.896Z,999.3
2023-03-26T15:37:24.264Z,999.4
2023-03-26T15:42:30.645Z,999.4
2023-03-26T15:47:37.105Z,999.5
2023-03-26T15:52:43.478Z,999.6
2023-03-26T15:57:53.890Z,999.6
2023-03-26T16:02:56.624Z,999.7
2023-03-26T16:08:02.833Z,999.9
2023-03-26T16:13:43.267Z,999.8
2023-03-26T16:18:15.643Z,999.9
2023-03-26T16:23:22.095Z,1000.1
2023-03-26T16:28:28.689Z,1000.1
2023-03-26T16:33:35.101Z,1000.3
2023-03-26T16:38:31.433Z,1000.3
2023-03-26T16:43:49.430Z,1000.3
2023-03-26T16:48:55.796Z,1000.4
2023-03-26T16:54:02.270Z,1000.5
2023-03-26T16:59:08.736Z,1000.6
2023-03-26T17:04:15.160Z,1000.8
2023-03-26T17:09:21.554Z,1000.9
2023-03-26T17:14:27.956Z,1001.0
2023-03-26T17:19:34.319Z,1001.1
2023-03-26T17:24:40.800Z,1001.1
2023-03-26T17:29:37.243Z,1001.3
2023-03-26T17:34:53.678Z,1001.3
2023-03-26T17:40:00.020Z,1001.5
2023-03-26T17:44:56.374Z,1001.6
2023-03-26T17:50:13.053Z,1001.7
2023-03-26T17:55:19.359Z,1001.9
2023-03-26T18:00:25.731Z,1002.0
2023-03-26T18:05:32.139Z,1002.2
2023-03-26T18:10:38.476Z,1002.2
2023-03-26T18:15:45.188Z,1002.4
2023-03-26T18:20:51.529Z,1002.5
2023-03-26T18:25:57.842Z,1002.7
2023-03-26T18:31:04.238Z,1002.8
2023-03-26T18:36:10.813Z,1002.9
2023-03-26T18:41:22.855Z,1003.0
2023-03-26T18:46:25.246Z,1003.1
2023-03-26T18:51:31.975Z,1003.2
2023-03-26T18:56:38.025Z,1003.3
2023-03-26T19:01:47.291Z,1003.5
2023-03-26T19:06:54.272Z,1003.5
2023-03-26T19:12:24.751Z,1003.6
2023-03-26T19:17:07.729Z,1003.7
2023-03-26T19:22:14.107Z,1003.8
2023-03-26T19:27:20.671Z,1003.9
2023-03-26T19:33:12.575Z,1004.0
2023-03-26T19:37:35.107Z,1004.1
2023-03-26T19:45:26.385Z,1004.2
2023-03-26T19:52:00.115Z,1004.4
2023-03-26T19:57:07.734Z,1004.4
2023-03-26T20:02:13.997Z,1004.6
2023-03-26T20:07:40.428Z,1004.5
2023-03-26T20:12:26.772Z,1004.6
2023-03-26T20:17:33.168Z,1004.7
2023-03-26T20:23:03.719Z,1004.8
2023-03-26T20:27:46.172Z,1005.0
2023-03-26T20:33:54.665Z,1005.1
2023-03-26T20:38:42.090Z,1005.1
2023-03-26T20:46:32.003Z,1005.2
2023-03-26T20:51:38.990Z,1005.3
2023-03-26T20:56:45.353Z,1005.4
2023-03-26T21:02:15.825Z,1005.5
2023-03-26T21:07:18.710Z,1005.6
2023-03-26T21:12:24.698Z,1005.6
2023-03-26T21:17:11.224Z,1005.7
2023-03-26T21:22:17.652Z,1005.7
2023-03-26T21:27:52.072Z,1005.8
2023-03-26T21:32:32.039Z,1005.9
2023-03-26T21:37:37.528Z,1006.0
2023-03-26T21:42:44.965Z,1006.0
2023-03-26T21:47:51.399Z,1006.2
2023-03-26T21:52:57.748Z,1006.3
2023-03-26T21:58:04.110Z,1006.3
2023-03-26T22:03:34.581Z,1006.4
2023-03-26T22:08:16.922Z,1006.5
2023-03-26T22:13:47.485Z,1006.6
2023-03-26T22:18:29.812Z,1006.7
2023-03-26T22:23:36.533Z,1006.8
2023-03-26T22:28:42.605Z,1006.8
2023-03-26T22:33:49.016Z,1006.9
2023-03-26T22:38:55.480Z,1007.0
2023-03-26T22:43:51.800Z,1007.0
2023-03-26T22:49:08.194Z,1007.0
2023-03-26T22:54:14.629Z,1007.2
2023-03-26T22:59:20.961Z,1007.3
2023-03-26T23:04:30.698Z,1007.5
2023-03-26T23:09:24.845Z,1007.5
2023-03-26T23:14:41.751Z,1007.7
2023-03-26T23:20:09.208Z,1007.7
2023-03-26T23:24:55.560Z,1007.8
2023-03-26T23:30:01.955Z,1007.8
2023-03-26T23:35:09.494Z,1007.9
2023-03-26T23:40:15.889Z,1008.0
2023-03-26T23:45:42.322Z,1008.0
2023-03-26T23:50:18.626Z,1008.1
2023-03-26T23:55:59.109Z,1008.2
